Time;durP1;ratioP1;P1;durP2;ratioP2;P2;SDS_P1;SDS_P2;PMS_P1;PMS_P2;Temp;Humidity;BMP_temperature;BMP_pressure;BME280_temperature;BME280_humidity;BME280_pressure;Samples;Min_cycle;Max_cycle;Signal;HPM_P1;HPM_P2
2021/11/13 00:01:22;;;;;;;21.15;15.48;;;;;;;7.60;99.77;100552.53;4967681;28;20070;-87
2021/11/13 00:03:50;;;;;;;22.42;15.73;;;;;;;7.61;99.86;100562.22;4963548;28;20054;-86
2021/11/13 00:06:19;;;;;;;22.88;13.77;;;;;;;7.62;100.00;100558.56;4964692;28;20108;-85
2021/11/13 00:08:44;;;;;;;24.20;15.53;;;;;;;7.63;100.00;100552.25;4965622;28;20042;-85
2021/11/13 00:11:11;;;;;;;21.88;14.82;;;;;;;7.62;100.00;100553.22;4979073;28;21196;-86
2021/11/13 00:13:38;;;;;;;23.10;15.52;;;;;;;7.64;100.00;100548.56;4981466;28;20042;-87
2021/11/13 00:16:04;;;;;;;22.27;15.35;;;;;;;7.65;100.00;100542.22;4982097;28;20041;-87
2021/11/13 00:18:35;;;;;;;23.60;14.88;;;;;;;7.65;100.00;100544.91;4984271;28;20046;-86
2021/11/13 00:21:03;;;;;;;25.00;15.75;;;;;;;7.65;100.00;100526.19;4949045;28;20496;-86
2021/11/13 00:23:30;;;;;;;22.58;16.67;;;;;;;7.67;100.00;100537.56;4980143;28;20391;-86
2021/11/13 00:25:56;;;;;;;26.17;14.73;;;;;;;7.65;100.00;100543.09;4979782;28;20046;-86
2021/11/13 00:28:22;;;;;;;24.00;15.43;;;;;;;7.62;100.00;100534.50;4956928;28;20046;-87
2021/11/13 00:30:48;;;;;;;23.38;15.38;;;;;;;7.63;100.00;100533.53;4954523;28;20864;-87
2021/11/13 00:33:13;;;;;;;24.13;15.13;;;;;;;7.63;100.00;100523.69;4952755;28;22040;-86
2021/11/13 00:35:41;;;;;;;21.83;14.93;;;;;;;7.62;100.00;100529.19;4968910;28;20101;-87
2021/11/13 00:38:08;;;;;;;25.73;16.27;;;;;;;7.62;100.00;100515.81;4982575;28;20431;-86
2021/11/13 00:40:35;;;;;;;23.25;15.73;;;;;;;7.62;100.00;100521.16;4976806;28;20070;-85
2021/11/13 00:43:00;;;;;;;22.23;16.38;;;;;;;7.64;100.00;100508.50;4963599;28;20054;-85
2021/11/13 00:45:26;;;;;;;26.20;15.35;;;;;;;7.64;100.00;100519.19;4980637;28;20050;-85
2021/11/13 00:47:51;;;;;;;21.25;16.38;;;;;;;7.63;100.00;100521.03;4963222;28;20049;-85
2021/11/13 00:50:17;;;;;;;26.45;18.65;;;;;;;7.63;100.00;100521.03;4978307;28;20042;-86
2021/11/13 00:52:43;;;;;;;25.67;18.13;;;;;;;7.59;100.00;100508.94;4982123;28;20056;-84
2021/11/13 00:55:10;;;;;;;26.63;18.35;;;;;;;7.55;100.00;100504.09;4960276;28;20121;-84
2021/11/13 00:57:36;;;;;;;29.63;19.92;;;;;;;7.53;100.00;100498.03;4984663;28;20626;-84
2021/11/13 01:00:07;;;;;;;28.48;19.05;;;;;;;7.47;100.00;100494.97;4987101;28;20066;-84
2021/11/13 01:02:34;;;;;;;30.27;21.88;;;;;;;7.46;100.00;100489.81;4984056;28;20101;-85
2021/11/13 01:05:03;;;;;;;32.22;22.17;;;;;;;7.43;100.00;100495.47;4985786;28;20511;-85
2021/11/13 01:07:28;;;;;;;36.28;20.33;;;;;;;7.39;100.00;100494.94;4964774;28;20053;-84
2021/11/13 01:09:54;;;;;;;34.83;23.80;;;;;;;7.37;100.00;100482.72;4965996;28;20038;-84
2021/11/13 01:12:19;;;;;;;33.25;22.38;;;;;;;7.36;100.00;100489.03;4966583;28;20097;-85
2021/11/13 01:14:45;;;;;;;33.00;22.60;;;;;;;7.34;100.00;100480.34;4952880;28;20034;-85
2021/11/13 01:17:13;;;;;;;33.75;21.55;;;;;;;7.34;100.00;100488.34;4972847;28;20101;-85
2021/11/13 01:19:40;;;;;;;34.63;20.95;;;;;;;7.31;100.00;100485.97;4957237;28;20047;-86
2021/11/13 01:22:06;;;;;;;38.53;24.77;;;;;;;7.32;100.00;100483.16;4923915;28;20570;-86
2021/11/13 01:24:32;;;;;;;37.63;25.52;;;;;;;7.33;100.00;100492.00;4962388;28;20046;-85
2021/11/13 01:26:59;;;;;;;37.95;24.38;;;;;;;7.28;100.00;100472.91;4977779;28;20384;-84
2021/11/13 01:29:24;;;;;;;38.20;23.00;;;;;;;7.25;100.00;100484.75;4969783;28;20499;-84
2021/11/13 01:31:50;;;;;;;36.88;23.42;;;;;;;7.24;100.00;100485.72;4969338;28;20050;-84
2021/11/13 01:34:15;;;;;;;39.28;24.77;;;;;;;7.25;100.00;100476.75;4986434;28;20295;-85
2021/11/13 01:36:41;;;;;;;38.78;25.33;;;;;;;7.23;100.00;100474.22;4972048;28;20145;-85
2021/11/13 01:39:06;;;;;;;35.83;22.25;;;;;;;7.22;100.00;100471.69;4955171;28;20030;-85
2021/11/13 01:41:33;;;;;;;38.75;26.40;;;;;;;7.23;100.00;100468.88;4972805;28;20504;-85
2021/11/13 01:43:58;;;;;;;38.63;26.05;;;;;;;7.26;100.00;100477.59;4981185;28;20050;-85
2021/11/13 01:46:24;;;;;;;38.50;27.08;;;;;;;7.27;100.00;100482.75;4989953;28;20047;-85
2021/11/13 01:48:51;;;;;;;39.13;23.30;;;;;;;7.29;100.00;100475.44;4956590;28;20497;-84
2021/11/13 01:51:22;;;;;;;36.72;25.60;;;;;;;7.29;100.00;100466.59;4986987;28;20050;-84
2021/11/13 01:53:50;;;;;;;40.35;26.67;;;;;;;7.27;100.00;100461.41;4967716;28;20061;-84
2021/11/13 01:56:17;;;;;;;39.38;24.52;;;;;;;7.27;100.00;100463.25;4970704;28;20529;-84
2021/11/13 01:58:48;;;;;;;40.80;24.77;;;;;;;7.26;100.00;100461.56;4971220;28;20384;-86
2021/11/13 02:01:14;;;;;;;39.28;26.90;;;;;;;7.26;100.00;100453.56;4969124;28;20035;-85
2021/11/13 02:03:39;;;;;;;41.63;25.45;;;;;;;7.26;100.00;100464.25;4973067;28;20144;-85
2021/11/13 02:06:05;;;;;;;42.35;26.35;;;;;;;7.26;100.00;100461.56;4987169;28;20105;-85
2021/11/13 02:08:32;;;;;;;42.58;28.55;;;;;;;7.24;100.00;100459.03;4988199;28;20058;-86
2021/11/13 02:10:58;;;;;;;44.28;27.13;;;;;;;7.22;100.00;100458.34;4971320;28;20096;-85
2021/11/13 02:13:23;;;;;;;43.88;27.77;;;;;;;7.22;100.00;100463.69;4965581;28;20068;-86
2021/11/13 02:15:49;;;;;;;40.88;25.30;;;;;;;7.20;100.00;100457.69;4988966;28;20082;-85
2021/11/13 02:18:16;;;;;;;42.78;28.27;;;;;;;7.21;100.00;100460.19;4965837;28;20042;-86
2021/11/13 02:20:43;;;;;;;46.13;30.35;;;;;;;7.21;100.00;100446.00;4973306;28;20062;-85
2021/11/13 02:23:14;;;;;;;46.35;29.45;;;;;;;7.22;100.00;100445.88;4986755;28;20566;-84
2021/11/13 02:25:40;;;;;;;47.60;31.73;;;;;;;7.25;100.00;100452.72;4971400;28;20053;-85
2021/11/13 02:28:11;;;;;;;49.83;29.70;;;;;;;7.23;100.00;100457.38;4971068;28;20478;-84
2021/11/13 02:30:36;;;;;;;49.08;30.92;;;;;;;7.23;100.00;100446.69;4972594;28;20376;-84
2021/11/13 02:33:03;;;;;;;48.90;32.13;;;;;;;7.23;100.00;100446.69;4966374;28;20042;-86
2021/11/13 02:35:33;;;;;;;53.05;32.17;;;;;;;7.23;100.00;100441.34;4982239;28;20050;-85
2021/11/13 02:38:24;;;;;;;49.72;31.70;;;;;;;7.21;100.00;100446.84;4984959;28;20250;-84
2021/11/13 02:40:55;;;;;;;49.63;31.17;;;;;;;7.19;100.00;100445.31;4984880;28;20856;-84
2021/11/13 02:43:20;;;;;;;51.50;31.42;;;;;;;7.16;100.00;100440.28;4980895;28;20042;-85
2021/11/13 02:45:46;;;;;;;45.95;29.08;;;;;;;7.14;100.00;100437.78;4984161;28;20034;-86
2021/11/13 02:48:14;;;;;;;52.97;32.85;;;;;;;7.16;100.00;100440.28;4968752;28;20057;-84
2021/11/13 02:50:40;;;;;;;49.55;32.92;;;;;;;7.15;100.00;100438.59;4951562;28;20046;-84
2021/11/13 02:53:13;;;;;;;51.13;34.50;;;;;;;7.12;100.00;100431.72;4979546;28;20034;-85
2021/11/13 02:55:39;;;;;;;49.97;30.15;;;;;;;7.11;100.00;100434.56;4982258;28;20391;-83
2021/11/13 02:58:06;;;;;;;51.22;34.75;;;;;;;7.12;100.00;100438.91;4983351;28;20053;-85
2021/11/13 03:00:31;;;;;;;53.33;33.85;;;;;;;7.11;100.00;100421.22;4985724;28;20042;-84
2021/11/13 03:02:57;;;;;;;49.42;32.17;;;;;;;7.11;100.00;100437.25;4972103;28;20050;-84
2021/11/13 03:05:29;;;;;;;52.33;35.03;;;;;;;7.13;100.00;100440.56;4982427;28;20042;-84
2021/11/13 03:07:56;;;;;;;50.60;33.15;;;;;;;7.12;100.00;100433.56;4966152;28;20038;-84
2021/11/13 03:10:25;;;;;;;53.53;34.55;;;;;;;7.13;100.00;100429.91;4980557;28;20311;-84
2021/11/13 03:12:52;;;;;;;47.45;32.80;;;;;;;7.12;100.00;100430.91;4979347;28;20484;-85
2021/11/13 03:15:20;;;;;;;48.38;28.98;;;;;;;7.10;100.00;100427.53;4966441;28;20556;-84
2021/11/13 03:17:46;;;;;;;50.72;30.15;;;;;;;7.10;100.00;100431.03;4967560;28;20054;-84
2021/11/13 03:20:16;;;;;;;53.42;32.45;;;;;;;7.10;100.00;100427.53;4947519;28;20065;-84
2021/11/13 03:22:48;;;;;;;50.00;30.85;;;;;;;7.10;100.00;100427.53;4960653;28;20104;-85
2021/11/13 03:25:21;;;;;;;50.83;33.00;;;;;;;7.12;100.00;100428.22;4968456;28;20065;-84
2021/11/13 03:27:52;;;;;;;44.17;30.27;;;;;;;7.11;100.00;100426.56;4982649;28;20042;-84
2021/11/13 03:30:19;;;;;;;47.65;28.50;;;;;;;7.11;100.00;100418.56;4949748;28;20127;-85
2021/11/13 03:32:49;;;;;;;41.70;24.92;;;;;;;7.11;100.00;100423.91;4952366;28;20442;-84
2021/11/13 03:35:16;;;;;;;48.90;30.15;;;;;;;7.11;100.00;100415.88;4973749;28;20390;-85
2021/11/13 03:37:43;;;;;;;40.03;27.27;;;;;;;7.10;100.00;100415.03;4962179;28;20042;-85
2021/11/13 03:40:10;;;;;;;44.50;27.92;;;;;;;7.11;100.00;100410.56;4979044;28;20319;-84
2021/11/13 03:42:39;;;;;;;47.88;28.58;;;;;;;7.12;100.00;100412.22;4983242;28;20034;-83
2021/11/13 03:45:06;;;;;;;46.28;31.95;;;;;;;7.13;100.00;100414.72;4982447;28;20030;-85
2021/11/13 03:47:32;;;;;;;44.85;30.08;;;;;;;7.11;100.00;100411.38;4965008;28;20050;-85
2021/11/13 03:49:58;;;;;;;46.38;26.05;;;;;;;7.10;100.00;100415.03;4986460;28;20052;-85
2021/11/13 03:52:26;;;;;;;40.55;28.42;;;;;;;7.11;100.00;100416.72;4966648;28;20053;-84
2021/11/13 03:54:51;;;;;;;44.72;28.65;;;;;;;7.12;100.00;100414.88;4961487;28;20049;-85
2021/11/13 03:57:17;;;;;;;43.90;28.38;;;;;;;7.15;100.00;100417.25;4964137;28;20455;-85
2021/11/13 03:59:43;;;;;;;35.92;24.60;;;;;;;7.13;100.00;100408.56;4968112;28;20312;-85
2021/11/13 04:02:11;;;;;;;38.88;24.52;;;;;;;7.13;100.00;100413.88;4980874;28;20046;-85
2021/11/13 04:04:41;;;;;;;36.17;24.45;;;;;;;7.14;100.00;100405.75;4966441;28;20038;-84
2021/11/13 04:07:07;;;;;;;38.03;27.42;;;;;;;7.14;100.00;100410.25;4971522;28;20034;-85
2021/11/13 04:09:35;;;;;;;43.35;30.75;;;;;;;7.15;100.00;100410.09;4981386;28;20096;-85
2021/11/13 04:12:05;;;;;;;43.20;29.92;;;;;;;7.16;100.00;100416.25;4965270;28;20038;-84
2021/11/13 04:14:34;;;;;;;41.17;31.02;;;;;;;7.17;100.00;100416.13;4970579;28;20179;-85
2021/11/13 04:17:00;;;;;;;42.93;31.40;;;;;;;7.19;100.00;100418.63;4971374;28;20053;-86
2021/11/13 04:19:26;;;;;;;45.95;31.30;;;;;;;7.19;100.00;100418.63;4978214;28;20181;-85
2021/11/13 04:21:51;;;;;;;45.83;28.70;;;;;;;7.19;100.00;100429.28;4976570;28;20075;-84
2021/11/13 04:24:17;;;;;;;46.70;30.20;;;;;;;7.19;100.00;100415.94;4981693;28;20129;-84
2021/11/13 04:26:42;;;;;;;47.30;31.52;;;;;;;7.20;100.00;100420.31;4967905;28;20038;-84
2021/11/13 04:29:09;;;;;;;52.67;32.50;;;;;;;7.22;100.00;100426.31;4966503;28;20110;-84
2021/11/13 04:31:34;;;;;;;48.85;31.75;;;;;;;7.20;100.00;100418.47;4964181;28;20080;-84
2021/11/13 04:34:02;;;;;;;49.35;31.98;;;;;;;7.22;100.00;100424.50;4963441;28;20465;-85
2021/11/13 04:36:37;;;;;;;49.95;33.08;;;;;;;7.23;100.00;100425.34;4959930;28;20479;-85
2021/11/13 04:39:07;;;;;;;52.10;34.08;;;;;;;7.21;100.00;100433.50;4982185;28;20050;-84
2021/11/13 04:41:34;;;;;;;47.88;29.75;;;;;;;7.23;100.00;100430.69;4965140;28;20050;-84
2021/11/13 04:43:59;;;;;;;48.42;31.08;;;;;;;7.24;100.00;100427.00;4967053;28;20704;-84
2021/11/13 04:46:26;;;;;;;50.00;32.00;;;;;;;7.24;100.00;100427.00;4983972;28;20046;-84
2021/11/13 04:48:53;;;;;;;51.05;34.08;;;;;;;7.27;100.00;100426.72;4981041;28;20058;-84
2021/11/13 04:51:20;;;;;;;49.50;34.97;;;;;;;7.27;100.00;100432.03;4951642;28;20089;-84
2021/11/13 04:53:48;;;;;;;49.13;33.10;;;;;;;7.29;100.00;100431.91;4950129;28;20042;-84
2021/11/13 04:56:13;;;;;;;47.92;31.33;;;;;;;7.30;100.00;100422.91;4982314;28;20035;-84
2021/11/13 04:58:38;;;;;;;47.72;30.30;;;;;;;7.32;100.00;100429.78;4977605;28;20097;-84
2021/11/13 05:01:04;;;;;;;50.40;31.52;;;;;;;7.33;100.00;100439.44;4966310;28;20042;-86
2021/11/13 05:03:30;;;;;;;47.45;28.92;;;;;;;7.33;100.00;100436.78;4968745;28;20039;-85
2021/11/13 05:05:55;;;;;;;48.10;33.10;;;;;;;7.36;100.00;100443.66;4972296;28;20132;-85
2021/11/13 05:08:21;;;;;;;49.25;30.85;;;;;;;7.36;100.00;100441.81;4987207;28;20042;-85
2021/11/13 05:10:48;;;;;;;49.13;32.53;;;;;;;7.37;100.00;100440.00;4955124;28;20648;-83
2021/11/13 05:13:13;;;;;;;46.05;29.52;;;;;;;7.36;100.00;100446.31;4955710;28;20038;-84
2021/11/13 05:15:39;;;;;;;47.28;28.45;;;;;;;7.36;100.00;100433.81;4988766;28;20057;-84
2021/11/13 05:18:04;;;;;;;51.22;34.97;;;;;;;7.38;100.00;100433.66;4966899;28;20104;-85
2021/11/13 05:20:30;;;;;;;51.60;31.58;;;;;;;7.39;100.00;100436.19;4966964;28;20047;-86
2021/11/13 05:22:56;;;;;;;48.78;33.10;;;;;;;7.41;100.00;100436.84;4981369;28;20058;-83
2021/11/13 05:25:22;;;;;;;52.47;33.80;;;;;;;7.40;100.00;100437.88;4953496;28;20065;-85
2021/11/13 05:27:49;;;;;;;48.88;30.90;;;;;;;7.40;100.00;100440.53;4966213;28;20054;-83
2021/11/13 05:30:18;;;;;;;53.28;33.55;;;;;;;7.43;100.00;100452.75;4972425;28;20506;-85
2021/11/13 05:32:45;;;;;;;49.45;28.67;;;;;;;7.41;100.00;100444.03;4949493;28;20403;-84
2021/11/13 05:35:10;;;;;;;49.47;32.15;;;;;;;7.43;100.00;100450.06;4982186;28;20046;-84
2021/11/13 05:37:37;;;;;;;48.10;29.75;;;;;;;7.43;100.00;100448.22;4982183;28;20049;-84
2021/11/13 05:40:05;;;;;;;50.92;31.40;;;;;;;7.43;100.00;100450.91;4977244;28;20043;-85
2021/11/13 05:42:31;;;;;;;51.58;32.97;;;;;;;7.43;100.00;100450.91;4976270;28;20071;-86
2021/11/13 05:44:56;;;;;;;55.65;37.30;;;;;;;7.43;100.00;100455.41;4971122;28;20050;-85
2021/11/13 05:47:25;;;;;;;52.80;32.75;;;;;;;7.42;100.00;100451.91;4967415;28;20074;-85
2021/11/13 05:49:51;;;;;;;56.15;36.15;;;;;;;7.45;100.00;100454.28;4979400;28;20070;-84
2021/11/13 05:52:18;;;;;;;55.40;32.72;;;;;;;7.45;100.00;100456.94;4967665;28;20074;-84
2021/11/13 05:54:44;;;;;;;54.08;31.85;;;;;;;7.46;100.00;100449.75;4984602;28;20394;-85
2021/11/13 05:57:10;;;;;;;51.35;33.53;;;;;;;7.46;100.00;100458.59;4984539;28;20046;-84
2021/11/13 05:59:35;;;;;;;57.08;36.88;;;;;;;7.49;100.00;100457.47;4986396;28;20042;-85
2021/11/13 06:02:07;;;;;;;57.75;34.65;;;;;;;7.49;100.00;100452.13;4970207;28;20062;-84
2021/11/13 06:04:33;;;;;;;56.40;35.75;;;;;;;7.49;100.00;100457.47;4955130;28;20085;-83
2021/11/13 06:06:59;;;;;;;59.53;38.50;;;;;;;7.51;100.00;100454.63;4965644;28;20068;-85
2021/11/13 06:09:31;;;;;;;58.08;33.05;;;;;;;7.52;100.00;100459.81;4970316;28;20042;-85
2021/11/13 06:11:57;;;;;;;55.40;35.47;;;;;;;7.53;100.00;100456.16;4946541;28;20045;-84
2021/11/13 06:14:22;;;;;;;60.15;31.42;;;;;;;7.54;100.00;100459.66;4985110;28;20040;-85
2021/11/13 06:16:48;;;;;;;54.67;35.28;;;;;;;7.56;100.00;100463.84;4983783;28;20049;-84
2021/11/13 06:19:13;;;;;;;52.05;32.70;;;;;;;7.58;100.00;100469.91;4992096;28;20050;-84
2021/11/13 06:21:38;;;;;;;57.72;36.10;;;;;;;7.57;100.00;100465.56;4976365;28;20045;-84
2021/11/13 06:24:05;;;;;;;60.45;38.58;;;;;;;7.59;100.00;100476.06;4990457;28;20062;-85
2021/11/13 06:26:30;;;;;;;61.17;38.17;;;;;;;7.59;100.00;100476.06;4976656;28;20039;-84
2021/11/13 06:28:56;;;;;;;57.90;36.13;;;;;;;7.61;100.00;100482.94;4976173;28;20049;-85
2021/11/13 06:31:21;;;;;;;62.03;36.28;;;;;;;7.62;100.00;100478.44;4992679;28;20038;-85
2021/11/13 06:33:47;;;;;;;63.17;34.47;;;;;;;7.64;100.00;100484.47;4943475;28;20046;-84
2021/11/13 06:36:12;;;;;;;61.58;39.28;;;;;;;7.63;100.00;100480.13;4974718;28;20050;-84
2021/11/13 06:38:37;;;;;;;61.70;36.42;;;;;;;7.63;100.00;100483.63;4975630;28;20447;-84
2021/11/13 06:41:03;;;;;;;70.57;39.00;;;;;;;7.66;100.00;100482.50;4977739;28;20075;-84
2021/11/13 06:43:28;;;;;;;66.82;41.75;;;;;;;7.67;100.00;100486.84;4992798;28;20034;-85
2021/11/13 06:45:54;;;;;;;68.40;37.30;;;;;;;7.68;100.00;100493.84;4993228;28;20054;-85
2021/11/13 06:48:20;;;;;;;63.63;35.95;;;;;;;7.68;100.00;100486.69;4956913;28;20054;-85
2021/11/13 06:50:46;;;;;;;74.38;43.42;;;;;;;7.69;100.00;100493.72;4992401;28;20058;-84
2021/11/13 06:53:13;;;;;;;66.72;38.08;;;;;;;7.71;100.00;100496.25;4972826;28;20494;-86
2021/11/13 06:55:38;;;;;;;72.10;40.60;;;;;;;7.72;100.00;100499.75;4985184;28;20092;-83
2021/11/13 06:58:04;;;;;;;70.28;39.72;;;;;;;7.71;100.00;100493.56;4963210;28;20038;-84
2021/11/13 07:00:30;;;;;;;69.57;38.22;;;;;;;7.71;100.00;100498.91;4964938;28;20073;-86
2021/11/13 07:02:59;;;;;;;74.38;39.22;;;;;;;7.70;100.00;100497.22;4974016;28;20145;-85
2021/11/13 07:05:26;;;;;;;76.70;42.65;;;;;;;7.72;100.00;100503.25;4963771;28;20129;-85
2021/11/13 07:07:51;;;;;;;77.20;45.15;;;;;;;7.73;100.00;100506.75;4988082;28;20102;-85
2021/11/13 07:10:16;;;;;;;84.97;45.22;;;;;;;7.74;100.00;100509.28;4956846;28;20042;-86
2021/11/13 07:12:43;;;;;;;82.85;45.05;;;;;;;7.76;100.00;100517.13;4958899;28;20085;-85
2021/11/13 07:15:09;;;;;;;77.78;40.95;;;;;;;7.76;100.00;100515.28;4987824;28;20665;-86
2021/11/13 07:17:35;;;;;;;94.65;50.97;;;;;;;7.77;100.00;100524.13;4989202;28;20053;-86
2021/11/13 07:20:01;;;;;;;89.97;44.88;;;;;;;7.77;100.00;100525.00;4957576;28;20058;-87
2021/11/13 07:22:27;;;;;;;95.85;50.50;;;;;;;7.78;100.00;100515.16;4980239;28;20133;-85
2021/11/13 07:24:52;;;;;;;92.43;45.55;;;;;;;7.79;100.00;100528.34;4960876;28;20046;-85
2021/11/13 07:27:17;;;;;;;92.20;45.97;;;;;;;7.80;100.00;100540.72;4960582;28;20057;-85
2021/11/13 07:30:03;;;;;;;99.22;47.05;;;;;;;7.79;100.00;100533.69;4969451;28;20042;-87
2021/11/13 07:32:30;;;;;;;88.68;43.00;;;;;;;7.78;100.00;100528.50;4992788;28;20116;-85
2021/11/13 07:34:55;;;;;;;86.85;48.88;;;;;;;7.80;100.00;100535.38;4986536;28;20034;-85
2021/11/13 07:37:21;;;;;;;97.50;46.00;;;;;;;7.79;100.00;100533.69;4963683;28;20080;-84
2021/11/13 07:39:47;;;;;;;96.82;46.30;;;;;;;7.80;100.00;100537.22;4985054;28;20586;-85
2021/11/13 07:42:12;;;;;;;94.75;46.55;;;;;;;7.82;100.00;100541.38;4967996;28;20035;-86
2021/11/13 07:44:38;;;;;;;100.43;54.20;;;;;;;7.82;100.00;100543.22;4984817;28;20094;-86
2021/11/13 07:47:03;;;;;;;98.55;52.53;;;;;;;7.82;100.00;100538.72;4974004;28;20107;-85
2021/11/13 07:49:29;;;;;;;94.43;48.63;;;;;;;7.82;100.00;100549.41;4960531;28;20073;-86
2021/11/13 07:51:54;;;;;;;94.13;46.70;;;;;;;7.81;100.00;100547.75;4971498;28;20088;-86
2021/11/13 07:54:20;;;;;;;94.45;44.55;;;;;;;7.83;100.00;100547.59;4970305;28;20039;-86
2021/11/13 07:56:46;;;;;;;101.65;51.72;;;;;;;7.84;100.00;100566.13;4983533;28;20042;-86
2021/11/13 07:59:13;;;;;;;96.38;48.65;;;;;;;7.86;100.00;100566.00;4988335;28;20125;-84
2021/11/13 08:01:39;;;;;;;92.95;44.25;;;;;;;7.85;100.00;100566.97;4970416;28;20077;-87
2021/11/13 08:04:05;;;;;;;88.15;46.40;;;;;;;7.86;100.00;100566.81;4984104;28;20518;-86
2021/11/13 08:06:30;;;;;;;90.32;46.58;;;;;;;7.88;100.00;100572.00;4957273;28;20047;-86
2021/11/13 08:08:56;;;;;;;94.20;45.78;;;;;;;7.87;100.00;100568.50;4990360;28;20096;-85
2021/11/13 08:11:21;;;;;;;97.03;46.33;;;;;;;7.89;100.00;100571.88;4974058;28;20726;-85
2021/11/13 08:13:47;;;;;;;83.75;44.10;;;;;;;7.90;100.00;100562.00;4990276;28;20525;-86
2021/11/13 08:16:12;;;;;;;96.43;48.53;;;;;;;7.93;100.00;100576.91;4972518;28;20395;-85
2021/11/13 08:18:38;;;;;;;100.63;51.90;;;;;;;7.94;100.00;100575.91;4973391;28;20049;-85
2021/11/13 08:21:04;;;;;;;86.95;44.95;;;;;;;7.95;100.00;100578.44;4974782;28;20050;-87
2021/11/13 08:23:30;;;;;;;91.72;48.70;;;;;;;7.96;100.00;100576.59;4993232;28;20190;-85
2021/11/13 08:25:56;;;;;;;98.53;49.72;;;;;;;7.99;100.00;100571.78;4988685;28;20041;-86
2021/11/13 08:28:22;;;;;;;83.47;44.55;;;;;;;8.01;100.00;100568.97;4967459;28;20038;-85
2021/11/13 08:30:48;;;;;;;91.93;50.03;;;;;;;8.04;100.00;100579.34;4987212;28;20440;-87
2021/11/13 08:33:13;;;;;;;84.97;42.47;;;;;;;8.07;100.00;100574.53;4983102;28;20043;-86
2021/11/13 08:35:42;;;;;;;83.95;43.45;;;;;;;8.08;100.00;100575.38;4984615;28;20046;-83
2021/11/13 08:38:09;;;;;;;86.35;47.70;;;;;;;8.11;100.00;100575.06;4982908;28;20450;-86
2021/11/13 08:40:35;;;;;;;83.65;44.33;;;;;;;8.12;100.00;100580.25;4959894;28;20034;-86
2021/11/13 08:43:00;;;;;;;85.57;47.08;;;;;;;8.15;100.00;100581.78;5001482;28;20045;-86
2021/11/13 08:45:26;;;;;;;89.63;48.85;;;;;;;8.19;100.00;100583.16;4989520;28;20038;-86
2021/11/13 08:47:51;;;;;;;94.07;49.97;;;;;;;8.24;100.00;100583.53;4987386;28;20054;-86
2021/11/13 08:50:23;;;;;;;92.80;50.63;;;;;;;8.26;100.00;100588.75;4960106;28;20535;-87
2021/11/13 08:52:51;;;;;;;89.88;50.05;;;;;;;8.30;100.00;100590.09;4988367;28;20049;-85
2021/11/13 08:55:18;;;;;;;82.85;47.13;;;;;;;8.32;100.00;100588.97;4972110;28;20125;-85
2021/11/13 08:57:46;;;;;;;86.40;45.20;;;;;;;8.35;100.00;100591.31;4988308;28;20042;-85
2021/11/13 09:00:16;;;;;;;86.53;45.65;;;;;;;8.39;100.00;100599.06;4990460;28;20529;-84
2021/11/13 09:02:41;;;;;;;85.38;50.85;;;;;;;8.42;100.00;100598.75;4987534;28;20042;-84
2021/11/13 09:05:07;;;;;;;71.95;43.28;;;;;;;8.43;100.00;100589.72;4959025;28;20052;-84
2021/11/13 09:07:34;;;;;;;80.38;45.90;;;;;;;8.44;100.00;100602.94;4937308;28;20053;-85
2021/11/13 09:10:00;;;;;;;75.75;46.03;;;;;;;8.48;100.00;100598.13;4966808;28;20050;-85
2021/11/13 09:12:27;;;;;;;76.75;46.75;;;;;;;8.52;100.00;100595.00;4988390;28;20584;-84
2021/11/13 09:15:03;;;;;;;71.30;43.10;;;;;;;8.55;100.00;100592.00;4971971;28;20116;-84
2021/11/13 09:17:29;;;;;;;73.22;45.70;;;;;;;8.57;100.00;100591.84;4972134;28;20051;-85
2021/11/13 09:19:55;;;;;;;69.88;43.00;;;;;;;8.56;100.00;100593.69;4988795;28;20049;-84
2021/11/13 09:22:20;;;;;;;68.63;41.70;;;;;;;8.59;100.00;100589.84;4988690;28;20046;-84
2021/11/13 09:24:46;;;;;;;72.45;41.20;;;;;;;8.61;100.00;100603.91;4971364;28;20042;-84
2021/11/13 09:27:13;;;;;;;66.35;43.03;;;;;;;8.65;100.00;100599.94;4989579;28;20577;-85
2021/11/13 09:29:38;;;;;;;67.53;39.45;;;;;;;8.67;100.00;100603.28;4985554;28;20042;-83
2021/11/13 09:32:04;;;;;;;67.10;39.63;;;;;;;8.72;100.00;100598.31;4968434;28;20184;-84
2021/11/13 09:34:29;;;;;;;66.90;42.28;;;;;;;8.74;100.00;100604.31;4967124;28;20045;-84
2021/11/13 09:36:55;;;;;;;66.20;40.65;;;;;;;8.77;100.00;100614.72;4980411;28;20049;-86
2021/11/13 09:39:20;;;;;;;64.55;42.38;;;;;;;8.80;100.00;100609.09;4983609;28;20038;-85
2021/11/13 09:41:47;;;;;;;72.63;44.30;;;;;;;8.84;100.00;100611.44;4991948;28;20065;-83
2021/11/13 09:44:12;;;;;;;66.82;40.58;;;;;;;8.84;100.00;100608.75;5005619;28;20391;-85
2021/11/13 09:46:38;;;;;;;66.82;39.97;;;;;;;8.83;100.00;100613.25;5004412;28;20042;-87
2021/11/13 09:49:05;;;;;;;69.32;42.70;;;;;;;8.87;100.00;100619.16;5010531;28;20046;-85
2021/11/13 09:51:31;;;;;;;66.63;38.55;;;;;;;8.89;100.00;100611.78;4994831;28;20137;-85
2021/11/13 09:53:58;;;;;;;62.50;36.50;;;;;;;8.89;100.00;100612.66;5008599;28;20034;-84
2021/11/13 09:56:24;;;;;;;68.05;41.10;;;;;;;8.91;100.00;100615.16;5009264;28;20038;-83
2021/11/13 09:58:50;;;;;;;67.78;40.17;;;;;;;8.93;100.00;100619.34;4999758;28;20037;-85
2021/11/13 10:01:17;;;;;;;68.82;42.78;;;;;;;8.96;100.00;100626.22;4991014;28;20034;-85
2021/11/13 10:03:47;;;;;;;68.68;40.72;;;;;;;8.95;100.00;100627.22;5009345;28;20516;-86
2021/11/13 10:06:14;;;;;;;63.63;41.65;;;;;;;8.95;100.00;100624.56;4972903;28;20494;-84
2021/11/13 10:08:43;;;;;;;68.90;42.78;;;;;;;8.97;100.00;100636.75;5008025;28;20095;-84
2021/11/13 10:11:12;;;;;;;69.38;42.20;;;;;;;8.98;100.00;100638.47;4991369;28;20033;-85
2021/11/13 10:13:38;;;;;;;;;;;;;;;8.97;100.00;100636.75;4995657;28;20041;-85
2021/11/13 10:16:08;;;;;;;69.45;44.00;;;;;;;8.91;100.00;100637.38;4994541;28;19964;-83
2021/11/13 10:18:38;;;;;;;69.50;40.60;;;;;;;8.92;100.00;100638.22;5011079;28;20551;-84
2021/11/13 10:21:12;;;;;;;69.85;42.45;;;;;;;8.94;100.00;100639.75;4993018;28;20042;-84
2021/11/13 10:23:42;;;;;;;70.43;44.60;;;;;;;9.00;100.00;100654.34;5010201;28;20046;-85
2021/11/13 10:26:24;;;;;;;69.40;44.15;;;;;;;9.01;100.00;100651.53;4992863;28;20042;-84
2021/11/13 10:28:51;;;;;;;68.30;43.75;;;;;;;9.02;100.00;100644.31;5011852;28;20125;-85
2021/11/13 10:31:23;;;;;;;68.85;42.00;;;;;;;9.06;100.00;100639.50;5009061;28;20141;-86
2021/11/13 10:33:51;;;;;;;71.13;43.38;;;;;;;9.10;100.00;100643.56;5004282;28;20495;-88
2021/11/13 10:36:28;;;;;;;66.10;42.60;;;;;;;9.13;100.00;100641.38;4972054;28;20041;-86
2021/11/13 10:39:04;;;;;;;63.67;40.28;;;;;;;9.15;100.00;100644.75;4973478;28;20044;-86
2021/11/13 10:41:30;;;;;;;66.07;41.90;;;;;;;9.20;100.00;100647.78;4992990;28;20046;-86
2021/11/13 10:43:56;;;;;;;58.05;37.65;;;;;;;9.23;100.00;100647.44;4989326;28;20042;-86
2021/11/13 10:46:24;;;;;;;62.20;40.80;;;;;;;9.29;100.00;100647.81;4991522;28;20049;-86
2021/11/13 10:48:53;;;;;;;58.97;37.55;;;;;;;9.30;100.00;100652.19;5007323;28;20421;-87
2021/11/13 10:51:22;;;;;;;63.47;36.80;;;;;;;9.33;100.00;100649.19;5008863;28;20045;-86
2021/11/13 10:53:49;;;;;;;55.50;36.33;;;;;;;9.35;100.00;100653.41;4976849;28;20438;-86
2021/11/13 10:56:21;;;;;;;51.75;33.50;;;;;;;9.36;100.00;100654.22;5007710;28;20042;-86
2021/11/13 10:58:49;;;;;;;56.47;35.90;;;;;;;9.41;100.00;100649.25;5007018;28;20046;-86
2021/11/13 11:01:24;;;;;;;55.97;33.23;;;;;;;9.43;100.00;100647.22;4971988;28;20073;-86
2021/11/13 11:03:57;;;;;;;51.38;32.63;;;;;;;9.42;100.00;100642.88;4976996;28;20515;-87
2021/11/13 11:06:38;;;;;;;46.88;32.63;;;;;;;9.45;100.00;100637.19;4962255;28;20046;-86
2021/11/13 11:09:19;;;;;;;45.90;29.73;;;;;;;9.45;100.00;100640.72;4966110;28;20121;-86